sensor_id;sensor_type;location;lat;lon;timestamp;P1;durP1;ratioP1;P2;durP2;ratioP2
22470;SDS011;11402;51.374;6.594;2022-07-23T00:01:07;11.27;;;6.25;;
22470;SDS011;11402;51.374;6.594;2022-07-23T00:03:32;12.40;;;6.28;;
22470;SDS011;11402;51.374;6.594;2022-07-23T00:05:58;12.00;;;6.07;;
22470;SDS011;11402;51.374;6.594;2022-07-23T00:08:25;10.35;;;6.25;;
22470;SDS011;11402;51.374;6.594;2022-07-23T00:10:51;9.40;;;6.15;;
22470;SDS011;11402;51.374;6.594;2022-07-23T00:13:17;9.07;;;5.93;;
22470;SDS011;11402;51.374;6.594;2022-07-23T00:15:42;16.60;;;6.85;;
22470;SDS011;11402;51.374;6.594;2022-07-23T00:18:08;11.02;;;6.43;;
22470;SDS011;11402;51.374;6.594;2022-07-23T00:20:33;11.10;;;6.32;;
22470;SDS011;11402;51.374;6.594;2022-07-23T00:22:59;9.10;;;6.15;;
22470;SDS011;11402;51.374;6.594;2022-07-23T00:25:24;14.32;;;7.00;;
22470;SDS011;11402;51.374;6.594;2022-07-23T00:27:51;11.88;;;6.60;;
22470;SDS011;11402;51.374;6.594;2022-07-23T00:30:17;8.07;;;5.95;;
22470;SDS011;11402;51.374;6.594;2022-07-23T00:32:50;10.45;;;6.63;;
22470;SDS011;11402;51.374;6.594;2022-07-23T00:35:24;14.13;;;6.70;;
22470;SDS011;11402;51.374;6.594;2022-07-23T00:37:52;16.15;;;7.15;;
22470;SDS011;11402;51.374;6.594;2022-07-23T00:40:18;13.80;;;7.35;;
22470;SDS011;11402;51.374;6.594;2022-07-23T00:42:43;11.43;;;7.38;;
22470;SDS011;11402;51.374;6.594;2022-07-23T00:45:09;11.93;;;6.72;;
22470;SDS011;11402;51.374;6.594;2022-07-23T00:47:35;8.50;;;6.63;;
22470;SDS011;11402;51.374;6.594;2022-07-23T00:50:02;11.25;;;7.32;;
22470;SDS011;11402;51.374;6.594;2022-07-23T00:52:29;10.30;;;6.85;;
22470;SDS011;11402;51.374;6.594;2022-07-23T00:54:56;10.55;;;7.18;;
22470;SDS011;11402;51.374;6.594;2022-07-23T00:57:22;11.68;;;7.10;;
22470;SDS011;11402;51.374;6.594;2022-07-23T00:59:48;11.70;;;7.25;;
22470;SDS011;11402;51.374;6.594;2022-07-23T01:02:13;9.63;;;6.88;;
22470;SDS011;11402;51.374;6.594;2022-07-23T01:04:39;11.60;;;7.50;;
22470;SDS011;11402;51.374;6.594;2022-07-23T01:07:05;11.02;;;7.65;;
22470;SDS011;11402;51.374;6.594;2022-07-23T01:09:31;11.13;;;7.93;;
22470;SDS011;11402;51.374;6.594;2022-07-23T01:11:57;12.25;;;8.15;;
22470;SDS011;11402;51.374;6.594;2022-07-23T01:14:23;18.77;;;8.77;;
22470;SDS011;11402;51.374;6.594;2022-07-23T01:16:49;11.23;;;8.65;;
22470;SDS011;11402;51.374;6.594;2022-07-23T01:19:16;11.35;;;8.35;;
22470;SDS011;11402;51.374;6.594;2022-07-23T01:21:43;11.23;;;8.18;;
22470;SDS011;11402;51.374;6.594;2022-07-23T01:24:10;18.10;;;8.77;;
22470;SDS011;11402;51.374;6.594;2022-07-23T01:26:37;10.77;;;7.85;;
22470;SDS011;11402;51.374;6.594;2022-07-23T01:29:03;9.85;;;8.35;;
22470;SDS011;11402;51.374;6.594;2022-07-23T01:31:30;11.80;;;8.10;;
22470;SDS011;11402;51.374;6.594;2022-07-23T01:33:55;10.25;;;8.48;;
22470;SDS011;11402;51.374;6.594;2022-07-23T01:36:21;15.57;;;8.35;;
22470;SDS011;11402;51.374;6.594;2022-07-23T01:38:47;13.77;;;8.10;;
22470;SDS011;11402;51.374;6.594;2022-07-23T01:41:13;11.10;;;7.88;;
22470;SDS011;11402;51.374;6.594;2022-07-23T01:43:39;13.40;;;8.02;;
22470;SDS011;11402;51.374;6.594;2022-07-23T01:46:04;12.70;;;7.93;;
22470;SDS011;11402;51.374;6.594;2022-07-23T01:48:30;10.27;;;7.45;;
22470;SDS011;11402;51.374;6.594;2022-07-23T01:50:56;9.35;;;7.50;;
22470;SDS011;11402;51.374;6.594;2022-07-23T01:53:21;12.07;;;7.78;;
22470;SDS011;11402;51.374;6.594;2022-07-23T01:55:49;10.73;;;7.68;;
22470;SDS011;11402;51.374;6.594;2022-07-23T01:58:15;12.40;;;7.82;;
22470;SDS011;11402;51.374;6.594;2022-07-23T02:00:41;8.48;;;7.57;;
22470;SDS011;11402;51.374;6.594;2022-07-23T02:03:06;7.63;;;6.82;;
22470;SDS011;11402;51.374;6.594;2022-07-23T02:05:32;9.82;;;7.30;;
22470;SDS011;11402;51.374;6.594;2022-07-23T02:07:58;13.65;;;7.85;;
22470;SDS011;11402;51.374;6.594;2022-07-23T02:10:25;8.40;;;7.47;;
22470;SDS011;11402;51.374;6.594;2022-07-23T02:12:51;9.27;;;8.13;;
22470;SDS011;11402;51.374;6.594;2022-07-23T02:15:17;14.55;;;8.20;;
22470;SDS011;11402;51.374;6.594;2022-07-23T02:17:43;9.52;;;7.95;;
22470;SDS011;11402;51.374;6.594;2022-07-23T02:20:09;10.88;;;8.05;;
22470;SDS011;11402;51.374;6.594;2022-07-23T02:22:36;13.20;;;8.27;;
22470;SDS011;11402;51.374;6.594;2022-07-23T02:25:05;12.48;;;8.40;;
22470;SDS011;11402;51.374;6.594;2022-07-23T02:27:32;10.05;;;8.18;;
22470;SDS011;11402;51.374;6.594;2022-07-23T02:29:58;12.10;;;8.02;;
22470;SDS011;11402;51.374;6.594;2022-07-23T02:32:24;10.23;;;8.80;;
22470;SDS011;11402;51.374;6.594;2022-07-23T02:34:49;10.95;;;8.18;;
22470;SDS011;11402;51.374;6.594;2022-07-23T02:37:15;11.10;;;8.07;;
22470;SDS011;11402;51.374;6.594;2022-07-23T02:39:41;17.10;;;8.77;;
22470;SDS011;11402;51.374;6.594;2022-07-23T02:42:07;11.68;;;8.27;;
22470;SDS011;11402;51.374;6.594;2022-07-23T02:44:33;11.57;;;7.90;;
22470;SDS011;11402;51.374;6.594;2022-07-23T02:46:59;17.48;;;8.35;;
22470;SDS011;11402;51.374;6.594;2022-07-23T02:49:24;11.73;;;7.97;;
22470;SDS011;11402;51.374;6.594;2022-07-23T02:51:50;10.82;;;8.30;;
22470;SDS011;11402;51.374;6.594;2022-07-23T02:54:15;11.65;;;9.15;;
22470;SDS011;11402;51.374;6.594;2022-07-23T02:56:42;12.20;;;8.95;;
22470;SDS011;11402;51.374;6.594;2022-07-23T02:59:07;10.23;;;8.43;;
22470;SDS011;11402;51.374;6.594;2022-07-23T03:01:33;13.65;;;9.00;;
22470;SDS011;11402;51.374;6.594;2022-07-23T03:03:59;10.50;;;8.25;;
22470;SDS011;11402;51.374;6.594;2022-07-23T03:06:24;10.07;;;8.68;;
22470;SDS011;11402;51.374;6.594;2022-07-23T03:08:50;13.70;;;9.32;;
22470;SDS011;11402;51.374;6.594;2022-07-23T03:11:15;12.50;;;9.02;;
22470;SDS011;11402;51.374;6.594;2022-07-23T03:13:41;13.65;;;9.32;;
22470;SDS011;11402;51.374;6.594;2022-07-23T03:16:06;13.23;;;8.93;;
22470;SDS011;11402;51.374;6.594;2022-07-23T03:18:32;9.60;;;8.00;;
22470;SDS011;11402;51.374;6.594;2022-07-23T03:20:58;14.35;;;8.98;;
22470;SDS011;11402;51.374;6.594;2022-07-23T03:23:24;11.57;;;9.07;;
22470;SDS011;11402;51.374;6.594;2022-07-23T03:25:50;10.88;;;8.35;;
22470;SDS011;11402;51.374;6.594;2022-07-23T03:28:16;10.60;;;8.48;;
22470;SDS011;11402;51.374;6.594;2022-07-23T03:30:43;12.57;;;8.88;;
22470;SDS011;11402;51.374;6.594;2022-07-23T03:33:11;11.45;;;8.70;;
22470;SDS011;11402;51.374;6.594;2022-07-23T03:35:41;11.85;;;8.82;;
22470;SDS011;11402;51.374;6.594;2022-07-23T03:38:07;13.82;;;8.98;;
22470;SDS011;11402;51.374;6.594;2022-07-23T03:40:33;10.50;;;8.50;;
22470;SDS011;11402;51.374;6.594;2022-07-23T03:42:59;13.02;;;9.82;;
22470;SDS011;11402;51.374;6.594;2022-07-23T03:45:24;12.50;;;8.63;;
22470;SDS011;11402;51.374;6.594;2022-07-23T03:47:50;10.43;;;8.18;;
22470;SDS011;11402;51.374;6.594;2022-07-23T03:50:15;11.75;;;8.15;;
22470;SDS011;11402;51.374;6.594;2022-07-23T03:52:41;9.82;;;8.57;;
22470;SDS011;11402;51.374;6.594;2022-07-23T03:55:07;12.82;;;8.52;;
22470;SDS011;11402;51.374;6.594;2022-07-23T03:57:32;11.95;;;8.80;;
22470;SDS011;11402;51.374;6.594;2022-07-23T03:59:58;12.63;;;8.27;;
22470;SDS011;11402;51.374;6.594;2022-07-23T04:02:24;13.27;;;9.35;;
22470;SDS011;11402;51.374;6.594;2022-07-23T04:04:50;12.98;;;9.35;;
22470;SDS011;11402;51.374;6.594;2022-07-23T04:07:15;14.80;;;8.88;;
22470;SDS011;11402;51.374;6.594;2022-07-23T04:09:42;12.10;;;9.05;;
22470;SDS011;11402;51.374;6.594;2022-07-23T04:12:08;14.57;;;9.27;;
22470;SDS011;11402;51.374;6.594;2022-07-23T04:14:34;12.50;;;8.68;;
22470;SDS011;11402;51.374;6.594;2022-07-23T04:17:00;11.73;;;9.43;;
22470;SDS011;11402;51.374;6.594;2022-07-23T04:19:26;16.17;;;9.43;;
22470;SDS011;11402;51.374;6.594;2022-07-23T04:21:52;18.33;;;10.75;;
22470;SDS011;11402;51.374;6.594;2022-07-23T04:24:17;15.27;;;9.65;;
22470;SDS011;11402;51.374;6.594;2022-07-23T04:26:43;15.27;;;10.50;;
22470;SDS011;11402;51.374;6.594;2022-07-23T04:29:09;13.45;;;9.07;;
22470;SDS011;11402;51.374;6.594;2022-07-23T04:31:35;11.35;;;9.23;;
22470;SDS011;11402;51.374;6.594;2022-07-23T04:34:01;13.20;;;9.32;;
22470;SDS011;11402;51.374;6.594;2022-07-23T04:36:26;13.27;;;9.50;;
22470;SDS011;11402;51.374;6.594;2022-07-23T04:38:52;13.75;;;9.77;;
22470;SDS011;11402;51.374;6.594;2022-07-23T04:41:18;12.45;;;9.85;;
22470;SDS011;11402;51.374;6.594;2022-07-23T04:43:44;12.98;;;10.30;;
22470;SDS011;11402;51.374;6.594;2022-07-23T04:46:09;13.85;;;10.07;;
22470;SDS011;11402;51.374;6.594;2022-07-23T04:48:35;11.70;;;10.18;;
22470;SDS011;11402;51.374;6.594;2022-07-23T04:51:01;12.30;;;10.20;;
22470;SDS011;11402;51.374;6.594;2022-07-23T04:53:27;16.23;;;9.93;;
22470;SDS011;11402;51.374;6.594;2022-07-23T04:55:52;16.40;;;10.40;;
22470;SDS011;11402;51.374;6.594;2022-07-23T04:58:18;17.58;;;11.13;;
22470;SDS011;11402;51.374;6.594;2022-07-23T05:00:43;17.25;;;11.02;;
22470;SDS011;11402;51.374;6.594;2022-07-23T05:03:09;12.77;;;10.35;;
22470;SDS011;11402;51.374;6.594;2022-07-23T05:05:35;14.23;;;11.73;;
22470;SDS011;11402;51.374;6.594;2022-07-23T05:08:01;15.02;;;11.38;;
22470;SDS011;11402;51.374;6.594;2022-07-23T05:10:26;16.35;;;11.45;;
22470;SDS011;11402;51.374;6.594;2022-07-23T05:12:52;16.63;;;12.00;;
22470;SDS011;11402;51.374;6.594;2022-07-23T05:15:18;15.48;;;11.25;;
22470;SDS011;11402;51.374;6.594;2022-07-23T05:17:43;14.85;;;11.73;;
22470;SDS011;11402;51.374;6.594;2022-07-23T05:20:09;16.17;;;11.48;;
22470;SDS011;11402;51.374;6.594;2022-07-23T05:22:35;18.25;;;11.60;;
22470;SDS011;11402;51.374;6.594;2022-07-23T05:25:00;14.32;;;10.98;;
22470;SDS011;11402;51.374;6.594;2022-07-23T05:27:26;16.63;;;11.77;;
22470;SDS011;11402;51.374;6.594;2022-07-23T05:29:51;15.35;;;11.52;;
22470;SDS011;11402;51.374;6.594;2022-07-23T05:32:17;17.60;;;11.40;;
22470;SDS011;11402;51.374;6.594;2022-07-23T05:34:42;15.65;;;11.82;;
22470;SDS011;11402;51.374;6.594;2022-07-23T05:37:08;16.52;;;12.52;;
22470;SDS011;11402;51.374;6.594;2022-07-23T05:39:34;16.58;;;13.25;;
22470;SDS011;11402;51.374;6.594;2022-07-23T05:41:59;18.92;;;13.18;;
22470;SDS011;11402;51.374;6.594;2022-07-23T05:44:25;17.95;;;12.80;;
22470;SDS011;11402;51.374;6.594;2022-07-23T05:46:52;17.02;;;12.45;;
22470;SDS011;11402;51.374;6.594;2022-07-23T05:49:17;18.23;;;13.05;;
22470;SDS011;11402;51.374;6.594;2022-07-23T05:51:43;17.25;;;13.35;;
22470;SDS011;11402;51.374;6.594;2022-07-23T05:54:09;18.55;;;12.85;;
22470;SDS011;11402;51.374;6.594;2022-07-23T05:56:34;20.77;;;12.93;;
22470;SDS011;11402;51.374;6.594;2022-07-23T05:59:00;17.55;;;13.23;;
22470;SDS011;11402;51.374;6.594;2022-07-23T06:01:26;21.40;;;14.10;;
22470;SDS011;11402;51.374;6.594;2022-07-23T06:03:51;17.58;;;13.13;;
22470;SDS011;11402;51.374;6.594;2022-07-23T06:06:17;18.15;;;13.88;;
22470;SDS011;11402;51.374;6.594;2022-07-23T06:08:43;16.23;;;12.65;;
22470;SDS011;11402;51.374;6.594;2022-07-23T06:11:08;15.32;;;12.15;;
22470;SDS011;11402;51.374;6.594;2022-07-23T06:13:34;17.88;;;13.13;;
22470;SDS011;11402;51.374;6.594;2022-07-23T06:15:59;20.70;;;14.52;;
22470;SDS011;11402;51.374;6.594;2022-07-23T06:18:25;20.98;;;13.93;;
22470;SDS011;11402;51.374;6.594;2022-07-23T06:20:50;16.20;;;13.55;;
22470;SDS011;11402;51.374;6.594;2022-07-23T06:23:16;20.58;;;13.85;;
22470;SDS011;11402;51.374;6.594;2022-07-23T06:25:42;21.15;;;14.57;;
22470;SDS011;11402;51.374;6.594;2022-07-23T06:28:07;20.73;;;14.57;;
22470;SDS011;11402;51.374;6.594;2022-07-23T06:30:33;18.63;;;14.07;;
22470;SDS011;11402;51.374;6.594;2022-07-23T06:32:58;20.13;;;14.50;;
22470;SDS011;11402;51.374;6.594;2022-07-23T06:35:24;20.33;;;14.50;;
22470;SDS011;11402;51.374;6.594;2022-07-23T06:37:50;18.50;;;14.27;;
22470;SDS011;11402;51.374;6.594;2022-07-23T06:40:18;15.32;;;13.60;;
22470;SDS011;11402;51.374;6.594;2022-07-23T06:42:46;19.95;;;14.20;;
22470;SDS011;11402;51.374;6.594;2022-07-23T06:45:11;15.80;;;13.70;;
22470;SDS011;11402;51.374;6.594;2022-07-23T06:47:37;16.92;;;12.68;;
22470;SDS011;11402;51.374;6.594;2022-07-23T06:50:03;19.65;;;12.48;;
22470;SDS011;11402;51.374;6.594;2022-07-23T06:52:30;15.40;;;12.27;;
22470;SDS011;11402;51.374;6.594;2022-07-23T06:54:55;19.58;;;12.23;;
22470;SDS011;11402;51.374;6.594;2022-07-23T06:57:21;14.57;;;11.77;;
22470;SDS011;11402;51.374;6.594;2022-07-23T06:59:46;17.13;;;11.93;;
22470;SDS011;11402;51.374;6.594;2022-07-23T07:02:12;14.27;;;11.00;;
22470;SDS011;11402;51.374;6.594;2022-07-23T07:04:37;15.55;;;12.07;;
22470;SDS011;11402;51.374;6.594;2022-07-23T07:07:03;15.57;;;11.18;;
22470;SDS011;11402;51.374;6.594;2022-07-23T07:09:29;14.57;;;11.50;;
22470;SDS011;11402;51.374;6.594;2022-07-23T07:11:54;15.35;;;11.95;;
22470;SDS011;11402;51.374;6.594;2022-07-23T07:14:20;15.13;;;11.35;;
22470;SDS011;11402;51.374;6.594;2022-07-23T07:16:46;18.63;;;11.75;;
22470;SDS011;11402;51.374;6.594;2022-07-23T07:19:11;14.25;;;10.88;;
22470;SDS011;11402;51.374;6.594;2022-07-23T07:21:37;15.82;;;10.77;;
22470;SDS011;11402;51.374;6.594;2022-07-23T07:24:03;14.38;;;10.77;;
22470;SDS011;11402;51.374;6.594;2022-07-23T07:26:28;15.40;;;10.88;;
22470;SDS011;11402;51.374;6.594;2022-07-23T07:28:55;20.00;;;12.50;;
22470;SDS011;11402;51.374;6.594;2022-07-23T07:31:21;12.70;;;9.82;;
22470;SDS011;11402;51.374;6.594;2022-07-23T07:33:47;15.23;;;9.95;;
22470;SDS011;11402;51.374;6.594;2022-07-23T07:36:12;16.77;;;10.05;;
22470;SDS011;11402;51.374;6.594;2022-07-23T07:38:38;13.63;;;9.18;;
22470;SDS011;11402;51.374;6.594;2022-07-23T07:41:04;13.10;;;8.65;;
22470;SDS011;11402;51.374;6.594;2022-07-23T07:43:29;11.05;;;8.30;;
22470;SDS011;11402;51.374;6.594;2022-07-23T07:45:55;12.98;;;9.02;;
22470;SDS011;11402;51.374;6.594;2022-07-23T07:48:20;13.05;;;8.80;;
22470;SDS011;11402;51.374;6.594;2022-07-23T07:50:46;12.82;;;8.70;;
22470;SDS011;11402;51.374;6.594;2022-07-23T07:53:11;9.98;;;8.02;;
22470;SDS011;11402;51.374;6.594;2022-07-23T07:55:37;14.77;;;8.07;;
22470;SDS011;11402;51.374;6.594;2022-07-23T07:58:03;12.35;;;7.60;;
22470;SDS011;11402;51.374;6.594;2022-07-23T08:00:28;12.93;;;7.65;;
22470;SDS011;11402;51.374;6.594;2022-07-23T08:02:55;13.48;;;6.60;;
22470;SDS011;11402;51.374;6.594;2022-07-23T08:05:21;11.38;;;5.85;;
22470;SDS011;11402;51.374;6.594;2022-07-23T08:07:48;6.28;;;5.10;;
22470;SDS011;11402;51.374;6.594;2022-07-23T08:10:14;8.40;;;5.53;;
22470;SDS011;11402;51.374;6.594;2022-07-23T08:12:41;14.30;;;6.40;;
22470;SDS011;11402;51.374;6.594;2022-07-23T08:15:12;9.73;;;6.38;;
22470;SDS011;11402;51.374;6.594;2022-07-23T08:17:38;10.48;;;6.00;;
22470;SDS011;11402;51.374;6.594;2022-07-23T08:20:05;9.68;;;6.15;;
22470;SDS011;11402;51.374;6.594;2022-07-23T08:22:41;8.90;;;5.53;;
22470;SDS011;11402;51.374;6.594;2022-07-23T08:25:17;8.30;;;5.70;;
22470;SDS011;11402;51.374;6.594;2022-07-23T08:27:46;10.77;;;6.25;;
22470;SDS011;11402;51.374;6.594;2022-07-23T08:30:12;12.07;;;6.28;;
22470;SDS011;11402;51.374;6.594;2022-07-23T08:35:38;7.18;;;5.50;;
22470;SDS011;11402;51.374;6.594;2022-07-23T08:38:07;8.68;;;5.80;;
22470;SDS011;11402;51.374;6.594;2022-07-23T08:40:37;7.72;;;5.60;;
22470;SDS011;11402;51.374;6.594;2022-07-23T08:43:05;10.50;;;5.15;;
22470;SDS011;11402;51.374;6.594;2022-07-23T08:48:04;8.57;;;5.72;;
22470;SDS011;11402;51.374;6.594;2022-07-23T08:50:53;9.77;;;5.50;;
22470;SDS011;11402;51.374;6.594;2022-07-23T08:53:21;9.80;;;5.15;;
22470;SDS011;11402;51.374;6.594;2022-07-23T08:55:49;9.40;;;5.57;;
22470;SDS011;11402;51.374;6.594;2022-07-23T08:58:16;6.75;;;4.28;;
22470;SDS011;11402;51.374;6.594;2022-07-23T09:00:42;7.28;;;5.00;;
22470;SDS011;11402;51.374;6.594;2022-07-23T09:03:15;9.10;;;5.32;;
22470;SDS011;11402;51.374;6.594;2022-07-23T09:05:43;10.25;;;5.70;;
22470;SDS011;11402;51.374;6.594;2022-07-23T09:10:42;5.13;;;3.70;;
22470;SDS011;11402;51.374;6.594;2022-07-23T09:13:32;7.10;;;4.03;;
22470;SDS011;11402;51.374;6.594;2022-07-23T09:16:00;6.85;;;4.15;;
22470;SDS011;11402;51.374;6.594;2022-07-23T09:18:34;7.30;;;4.05;;
22470;SDS011;11402;51.374;6.594;2022-07-23T09:23:42;6.03;;;4.25;;
22470;SDS011;11402;51.374;6.594;2022-07-23T09:26:17;4.88;;;3.90;;
22470;SDS011;11402;51.374;6.594;2022-07-23T09:28:51;4.72;;;3.40;;
22470;SDS011;11402;51.374;6.594;2022-07-23T09:36:43;10.52;;;3.40;;
22470;SDS011;11402;51.374;6.594;2022-07-23T09:39:10;4.53;;;3.30;;
22470;SDS011;11402;51.374;6.594;2022-07-23T09:41:38;4.47;;;3.35;;
22470;SDS011;11402;51.374;6.594;2022-07-23T09:44:12;6.32;;;3.40;;
22470;SDS011;11402;51.374;6.594;2022-07-23T09:46:41;7.10;;;3.63;;
22470;SDS011;11402;51.374;6.594;2022-07-23T09:49:26;5.22;;;3.22;;
22470;SDS011;11402;51.374;6.594;2022-07-23T09:51:55;5.97;;;2.97;;
22470;SDS011;11402;51.374;6.594;2022-07-23T09:54:24;4.95;;;3.05;;
22470;SDS011;11402;51.374;6.594;2022-07-23T09:56:53;5.30;;;3.13;;
22470;SDS011;11402;51.374;6.594;2022-07-23T10:01:48;5.22;;;3.25;;
22470;SDS011;11402;51.374;6.594;2022-07-23T10:04:15;5.18;;;3.30;;
22470;SDS011;11402;51.374;6.594;2022-07-23T10:06:41;5.97;;;3.53;;
22470;SDS011;11402;51.374;6.594;2022-07-23T10:09:10;5.30;;;3.35;;
22470;SDS011;11402;51.374;6.594;2022-07-23T10:11:41;5.28;;;3.90;;
22470;SDS011;11402;51.374;6.594;2022-07-23T10:14:07;4.05;;;3.13;;
22470;SDS011;11402;51.374;6.594;2022-07-23T10:16:33;7.22;;;3.75;;
22470;SDS011;11402;51.374;6.594;2022-07-23T10:18:58;4.88;;;3.45;;
22470;SDS011;11402;51.374;6.594;2022-07-23T10:21:30;6.88;;;3.58;;
22470;SDS011;11402;51.374;6.594;2022-07-23T10:24:08;5.38;;;3.22;;
22470;SDS011;11402;51.374;6.594;2022-07-23T10:29:51;7.28;;;3.42;;
22470;SDS011;11402;51.374;6.594;2022-07-23T10:32:31;4.97;;;3.38;;
22470;SDS011;11402;51.374;6.594;2022-07-23T10:38:07;4.75;;;2.80;;
22470;SDS011;11402;51.374;6.594;2022-07-23T10:40:52;5.47;;;2.53;;
22470;SDS011;11402;51.374;6.594;2022-07-23T10:43:26;3.53;;;2.00;;
22470;SDS011;11402;51.374;6.594;2022-07-23T10:45:53;4.68;;;2.47;;
22470;SDS011;11402;51.374;6.594;2022-07-23T10:48:23;4.20;;;2.13;;
22470;SDS011;11402;51.374;6.594;2022-07-23T10:51:11;4.15;;;2.47;;
22470;SDS011;11402;51.374;6.594;2022-07-23T10:53:57;5.47;;;2.47;;
22470;SDS011;11402;51.374;6.594;2022-07-23T10:59:20;2.55;;;1.88;;
22470;SDS011;11402;51.374;6.594;2022-07-23T11:01:45;3.70;;;2.10;;
22470;SDS011;11402;51.374;6.594;2022-07-23T11:04:11;3.78;;;2.20;;
22470;SDS011;11402;51.374;6.594;2022-07-23T11:14:59;5.50;;;2.40;;
22470;SDS011;11402;51.374;6.594;2022-07-23T11:17:35;5.20;;;2.50;;
22470;SDS011;11402;51.374;6.594;2022-07-23T11:20:24;4.65;;;2.15;;
22470;SDS011;11402;51.374;6.594;2022-07-23T11:22:52;3.95;;;2.30;;
22470;SDS011;11402;51.374;6.594;2022-07-23T11:27:47;5.72;;;2.25;;
22470;SDS011;11402;51.374;6.594;2022-07-23T11:32:51;3.95;;;2.03;;
22470;SDS011;11402;51.374;6.594;2022-07-23T11:35:22;3.17;;;1.75;;
22470;SDS011;11402;51.374;6.594;2022-07-23T11:37:50;4.07;;;2.25;;
22470;SDS011;11402;51.374;6.594;2022-07-23T11:40:19;4.43;;;2.42;;
22470;SDS011;11402;51.374;6.594;2022-07-23T11:43:01;5.20;;;2.60;;
22470;SDS011;11402;51.374;6.594;2022-07-23T11:45:31;2.85;;;2.20;;
22470;SDS011;11402;51.374;6.594;2022-07-23T11:48:02;4.00;;;2.50;;
22470;SDS011;11402;51.374;6.594;2022-07-23T11:50:28;4.63;;;2.22;;
22470;SDS011;11402;51.374;6.594;2022-07-23T11:52:54;4.97;;;2.60;;
22470;SDS011;11402;51.374;6.594;2022-07-23T11:55:20;5.07;;;2.38;;
22470;SDS011;11402;51.374;6.594;2022-07-23T11:57:50;3.65;;;1.85;;
22470;SDS011;11402;51.374;6.594;2022-07-23T12:00:22;3.40;;;2.53;;
22470;SDS011;11402;51.374;6.594;2022-07-23T12:02:50;6.45;;;2.67;;
22470;SDS011;11402;51.374;6.594;2022-07-23T12:05:22;5.50;;;2.88;;
22470;SDS011;11402;51.374;6.594;2022-07-23T12:07:49;4.30;;;2.70;;
22470;SDS011;11402;51.374;6.594;2022-07-23T12:10:17;3.38;;;2.70;;
22470;SDS011;11402;51.374;6.594;2022-07-23T12:12:45;3.35;;;2.20;;
22470;SDS011;11402;51.374;6.594;2022-07-23T12:15:16;3.55;;;2.10;;
22470;SDS011;11402;51.374;6.594;2022-07-23T12:17:45;5.22;;;2.50;;
22470;SDS011;11402;51.374;6.594;2022-07-23T12:20:13;4.05;;;2.30;;
22470;SDS011;11402;51.374;6.594;2022-07-23T12:22:46;3.45;;;2.03;;
22470;SDS011;11402;51.374;6.594;2022-07-23T12:25:17;3.30;;;2.25;;
22470;SDS011;11402;51.374;6.594;2022-07-23T12:27:57;4.25;;;2.08;;
22470;SDS011;11402;51.374;6.594;2022-07-23T12:30:30;3.25;;;1.73;;
22470;SDS011;11402;51.374;6.594;2022-07-23T12:32:58;5.95;;;1.85;;
22470;SDS011;11402;51.374;6.594;2022-07-23T12:35:29;5.90;;;2.13;;
22470;SDS011;11402;51.374;6.594;2022-07-23T12:40:26;4.47;;;2.10;;
22470;SDS011;11402;51.374;6.594;2022-07-23T12:45:22;7.55;;;2.40;;
22470;SDS011;11402;51.374;6.594;2022-07-23T12:55:43;2.78;;;1.92;;
22470;SDS011;11402;51.374;6.594;2022-07-23T12:58:11;3.22;;;1.83;;
22470;SDS011;11402;51.374;6.594;2022-07-23T13:00:54;6.03;;;1.90;;
22470;SDS011;11402;51.374;6.594;2022-07-23T13:05:49;3.80;;;1.92;;
22470;SDS011;11402;51.374;6.594;2022-07-23T13:08:15;2.58;;;2.25;;
22470;SDS011;11402;51.374;6.594;2022-07-23T13:10:40;3.88;;;2.40;;
22470;SDS011;11402;51.374;6.594;2022-07-23T13:13:12;5.45;;;2.20;;
22470;SDS011;11402;51.374;6.594;2022-07-23T13:15:38;5.22;;;2.17;;
22470;SDS011;11402;51.374;6.594;2022-07-23T13:18:03;3.53;;;2.25;;
22470;SDS011;11402;51.374;6.594;2022-07-23T13:20:29;3.90;;;2.30;;
22470;SDS011;11402;51.374;6.594;2022-07-23T13:22:56;2.63;;;2.00;;
22470;SDS011;11402;51.374;6.594;2022-07-23T13:25:22;2.83;;;2.05;;
22470;SDS011;11402;51.374;6.594;2022-07-23T13:27:48;5.55;;;2.13;;
22470;SDS011;11402;51.374;6.594;2022-07-23T13:30:13;5.65;;;2.30;;
22470;SDS011;11402;51.374;6.594;2022-07-23T13:32:39;4.63;;;1.90;;
22470;SDS011;11402;51.374;6.594;2022-07-23T13:35:05;3.47;;;2.20;;
22470;SDS011;11402;51.374;6.594;2022-07-23T13:37:31;4.43;;;2.33;;
22470;SDS011;11402;51.374;6.594;2022-07-23T13:39:57;2.95;;;2.15;;
22470;SDS011;11402;51.374;6.594;2022-07-23T13:42:22;3.28;;;2.17;;
22470;SDS011;11402;51.374;6.594;2022-07-23T13:44:48;3.65;;;2.50;;
22470;SDS011;11402;51.374;6.594;2022-07-23T13:47:14;4.80;;;2.17;;
22470;SDS011;11402;51.374;6.594;2022-07-23T13:49:39;4.75;;;2.30;;
22470;SDS011;11402;51.374;6.594;2022-07-23T13:52:05;3.67;;;2.10;;
22470;SDS011;11402;51.374;6.594;2022-07-23T13:54:30;6.38;;;2.30;;
22470;SDS011;11402;51.374;6.594;2022-07-23T13:56:56;6.63;;;2.40;;
22470;SDS011;11402;51.374;6.594;2022-07-23T13:59:22;3.65;;;2.35;;
22470;SDS011;11402;51.374;6.594;2022-07-23T14:01:48;7.15;;;2.60;;
22470;SDS011;11402;51.374;6.594;2022-07-23T14:04:13;5.38;;;2.35;;
22470;SDS011;11402;51.374;6.594;2022-07-23T14:06:39;3.42;;;2.38;;
22470;SDS011;11402;51.374;6.594;2022-07-23T14:09:04;5.18;;;2.47;;
22470;SDS011;11402;51.374;6.594;2022-07-23T14:11:30;6.20;;;2.40;;
22470;SDS011;11402;51.374;6.594;2022-07-23T14:13:56;4.95;;;2.60;;
22470;SDS011;11402;51.374;6.594;2022-07-23T14:16:23;5.43;;;2.45;;
22470;SDS011;11402;51.374;6.594;2022-07-23T14:18:49;5.00;;;2.30;;
22470;SDS011;11402;51.374;6.594;2022-07-23T14:21:14;3.40;;;2.30;;
22470;SDS011;11402;51.374;6.594;2022-07-23T14:23:40;2.60;;;2.30;;
22470;SDS011;11402;51.374;6.594;2022-07-23T14:26:05;3.38;;;2.40;;
22470;SDS011;11402;51.374;6.594;2022-07-23T14:28:34;4.50;;;2.45;;
22470;SDS011;11402;51.374;6.594;2022-07-23T14:31:00;6.50;;;2.22;;
22470;SDS011;11402;51.374;6.594;2022-07-23T14:33:25;5.55;;;2.38;;
22470;SDS011;11402;51.374;6.594;2022-07-23T14:35:51;4.00;;;2.17;;
22470;SDS011;11402;51.374;6.594;2022-07-23T14:38:16;2.70;;;2.10;;
22470;SDS011;11402;51.374;6.594;2022-07-23T14:40:42;5.72;;;2.25;;
22470;SDS011;11402;51.374;6.594;2022-07-23T14:43:08;7.20;;;2.30;;
22470;SDS011;11402;51.374;6.594;2022-07-23T14:45:34;4.13;;;2.55;;
22470;SDS011;11402;51.374;6.594;2022-07-23T14:47:59;3.30;;;2.40;;
22470;SDS011;11402;51.374;6.594;2022-07-23T14:50:27;4.35;;;2.33;;
22470;SDS011;11402;51.374;6.594;2022-07-23T14:52:53;4.55;;;2.05;;
22470;SDS011;11402;51.374;6.594;2022-07-23T14:55:18;5.32;;;2.03;;
22470;SDS011;11402;51.374;6.594;2022-07-23T14:57:44;4.65;;;2.53;;
22470;SDS011;11402;51.374;6.594;2022-07-23T15:00:10;4.50;;;2.47;;
22470;SDS011;11402;51.374;6.594;2022-07-23T15:02:36;5.10;;;2.65;;
22470;SDS011;11402;51.374;6.594;2022-07-23T15:05:01;5.70;;;2.30;;
22470;SDS011;11402;51.374;6.594;2022-07-23T15:07:27;6.07;;;2.20;;
22470;SDS011;11402;51.374;6.594;2022-07-23T15:09:55;4.13;;;2.17;;
22470;SDS011;11402;51.374;6.594;2022-07-23T15:12:23;5.25;;;2.30;;
22470;SDS011;11402;51.374;6.594;2022-07-23T15:14:49;4.30;;;2.20;;
22470;SDS011;11402;51.374;6.594;2022-07-23T15:17:15;5.68;;;3.53;;
22470;SDS011;11402;51.374;6.594;2022-07-23T15:19:41;4.90;;;2.40;;
22470;SDS011;11402;51.374;6.594;2022-07-23T15:22:06;5.70;;;2.47;;
22470;SDS011;11402;51.374;6.594;2022-07-23T15:24:32;3.55;;;2.17;;
22470;SDS011;11402;51.374;6.594;2022-07-23T15:26:58;4.45;;;2.13;;
22470;SDS011;11402;51.374;6.594;2022-07-23T15:29:24;2.25;;;1.95;;
22470;SDS011;11402;51.374;6.594;2022-07-23T15:31:49;5.28;;;2.50;;
22470;SDS011;11402;51.374;6.594;2022-07-23T15:34:15;3.85;;;2.35;;